Movella, Mississippi
Current Conditions -  °F | °C
As of 12:56 PM on Friday 31 Oct 2014 (Local Time) from KMOB Reporting Station
Few Clouds Few Clouds  
Wind Chill: 72°   Ceiling: Unl
Heat Index: 72°   Visibility: 10mi
Dew Point: 46°   Wind: 8mph
Humidity: 40%   Direction: 270°W
Pressure: 29.97"   Gusts: NA
Location:  30.8443°N, 88.5703°W
Report Text: KMOB 311756Z 27007KT 10SM FEW030 22/08 A2997 RMK AO2 SLP147 T02220078 10222 20056 58022
Loading
Personal Weather Stations






























Interactive Weather Map
Tropical Storm Tracking
New forecast layout! Learn more

10-Day Weather Forecast

Advertisements
Track Severe Weather on mobile